Terminal Aerodrome Forecast
Issued by NWS

Home | Current Version | Previous Version | Text Only | Print | Product List | Glossary On
Versions: 1 2 3 4 5 6 7 8 9 10 11 12 13 14 15 16 17 18 19 20 21 22 23 24 25 26 27 28 29
000
FTUS42 KCAE 231100 RRA
TAFOGB
TAF
KOGB 231141Z 2312/2412 VRB03KT 1/2SM FG VV002
     FM231300 VRB03KT 3SM BR SCT002
     FM231400 VRB03KT P6SM SCT025 BKN120
     FM231600 23006KT P6SM SCT025 BKN120
     FM240100 VRB03KT P6SM SCT035 BKN120
     FM240800 VRB03KT 5SM BR SCT010 BKN035=

USA.gov is the U.S. government's official web portal to all federal, state and local government web resources and services.